sensor_id;sensor_type;location;lat;lon;timestamp;P1;durP1;ratioP1;P2;durP2;ratioP2
69207;SDS011;56321;47.662;8.878;2023-04-06T00:00:21;9.93;;;4.28;;
69207;SDS011;56321;47.662;8.878;2023-04-06T00:02:48;9.90;;;4.07;;
69207;SDS011;56321;47.662;8.878;2023-04-06T00:05:13;8.67;;;3.77;;
69207;SDS011;56321;47.662;8.878;2023-04-06T00:07:38;9.73;;;3.88;;
69207;SDS011;56321;47.662;8.878;2023-04-06T00:10:04;9.83;;;4.20;;
69207;SDS011;56321;47.662;8.878;2023-04-06T00:12:30;10.20;;;4.38;;
69207;SDS011;56321;47.662;8.878;2023-04-06T00:14:55;10.03;;;4.20;;
69207;SDS011;56321;47.662;8.878;2023-04-06T00:17:21;9.57;;;3.80;;
69207;SDS011;56321;47.662;8.878;2023-04-06T00:19:46;9.53;;;3.93;;
69207;SDS011;56321;47.662;8.878;2023-04-06T00:22:11;9.53;;;3.80;;
69207;SDS011;56321;47.662;8.878;2023-04-06T00:24:37;8.70;;;3.73;;
69207;SDS011;56321;47.662;8.878;2023-04-06T00:27:02;9.27;;;3.67;;
69207;SDS011;56321;47.662;8.878;2023-04-06T00:29:27;8.68;;;3.67;;
69207;SDS011;56321;47.662;8.878;2023-04-06T00:31:53;9.57;;;3.90;;
69207;SDS011;56321;47.662;8.878;2023-04-06T00:34:18;9.73;;;3.90;;
69207;SDS011;56321;47.662;8.878;2023-04-06T00:36:43;9.37;;;4.10;;
69207;SDS011;56321;47.662;8.878;2023-04-06T00:39:09;8.80;;;3.93;;
69207;SDS011;56321;47.662;8.878;2023-04-06T00:41:35;8.73;;;3.72;;
69207;SDS011;56321;47.662;8.878;2023-04-06T00:44:00;10.37;;;4.10;;
69207;SDS011;56321;47.662;8.878;2023-04-06T00:46:26;8.93;;;3.80;;
69207;SDS011;56321;47.662;8.878;2023-04-06T00:48:51;8.53;;;4.17;;
69207;SDS011;56321;47.662;8.878;2023-04-06T00:51:16;8.80;;;3.80;;
69207;SDS011;56321;47.662;8.878;2023-04-06T00:53:42;10.13;;;3.93;;
69207;SDS011;56321;47.662;8.878;2023-04-06T00:56:07;9.10;;;3.90;;
69207;SDS011;56321;47.662;8.878;2023-04-06T00:58:34;9.52;;;4.00;;
69207;SDS011;56321;47.662;8.878;2023-04-06T01:01:03;9.73;;;4.00;;
69207;SDS011;56321;47.662;8.878;2023-04-06T01:03:29;8.73;;;4.03;;
69207;SDS011;56321;47.662;8.878;2023-04-06T01:05:54;9.67;;;4.43;;
69207;SDS011;56321;47.662;8.878;2023-04-06T01:08:23;9.63;;;4.27;;
69207;SDS011;56321;47.662;8.878;2023-04-06T01:10:49;11.70;;;4.40;;
69207;SDS011;56321;47.662;8.878;2023-04-06T01:13:14;9.33;;;3.90;;
69207;SDS011;56321;47.662;8.878;2023-04-06T01:15:40;10.68;;;4.15;;
69207;SDS011;56321;47.662;8.878;2023-04-06T01:18:07;10.23;;;4.57;;
69207;SDS011;56321;47.662;8.878;2023-04-06T01:20:35;10.07;;;4.45;;
69207;SDS011;56321;47.662;8.878;2023-04-06T01:23:01;9.63;;;4.47;;
69207;SDS011;56321;47.662;8.878;2023-04-06T01:25:26;9.97;;;4.40;;
69207;SDS011;56321;47.662;8.878;2023-04-06T01:27:51;10.23;;;4.63;;
69207;SDS011;56321;47.662;8.878;2023-04-06T01:30:17;10.50;;;4.60;;
69207;SDS011;56321;47.662;8.878;2023-04-06T01:32:42;10.50;;;4.57;;
69207;SDS011;56321;47.662;8.878;2023-04-06T01:35:08;9.73;;;4.40;;
69207;SDS011;56321;47.662;8.878;2023-04-06T01:37:34;10.20;;;4.40;;
69207;SDS011;56321;47.662;8.878;2023-04-06T01:40:00;11.43;;;4.80;;
69207;SDS011;56321;47.662;8.878;2023-04-06T01:42:25;10.75;;;4.80;;
69207;SDS011;56321;47.662;8.878;2023-04-06T01:44:51;10.00;;;4.23;;
69207;SDS011;56321;47.662;8.878;2023-04-06T01:47:17;10.20;;;4.43;;
69207;SDS011;56321;47.662;8.878;2023-04-06T01:49:42;10.65;;;4.40;;
69207;SDS011;56321;47.662;8.878;2023-04-06T01:52:07;9.70;;;4.50;;
69207;SDS011;56321;47.662;8.878;2023-04-06T01:54:33;9.87;;;4.70;;
69207;SDS011;56321;47.662;8.878;2023-04-06T01:56:58;9.80;;;3.90;;
69207;SDS011;56321;47.662;8.878;2023-04-06T01:59:23;11.40;;;4.50;;
69207;SDS011;56321;47.662;8.878;2023-04-06T02:01:49;10.18;;;4.30;;
69207;SDS011;56321;47.662;8.878;2023-04-06T02:04:14;10.50;;;4.67;;
69207;SDS011;56321;47.662;8.878;2023-04-06T02:06:40;10.17;;;4.30;;
69207;SDS011;56321;47.662;8.878;2023-04-06T02:09:06;10.15;;;4.50;;
69207;SDS011;56321;47.662;8.878;2023-04-06T02:11:31;9.50;;;4.27;;
69207;SDS011;56321;47.662;8.878;2023-04-06T02:13:56;9.77;;;3.93;;
69207;SDS011;56321;47.662;8.878;2023-04-06T02:16:22;10.27;;;4.27;;
69207;SDS011;56321;47.662;8.878;2023-04-06T02:18:47;10.67;;;4.40;;
69207;SDS011;56321;47.662;8.878;2023-04-06T02:21:14;11.07;;;4.55;;
69207;SDS011;56321;47.662;8.878;2023-04-06T02:23:44;9.63;;;4.47;;
69207;SDS011;56321;47.662;8.878;2023-04-06T02:26:10;10.80;;;4.37;;
69207;SDS011;56321;47.662;8.878;2023-04-06T02:28:35;9.67;;;4.30;;
69207;SDS011;56321;47.662;8.878;2023-04-06T02:31:00;9.60;;;4.37;;
69207;SDS011;56321;47.662;8.878;2023-04-06T02:33:26;10.87;;;4.70;;
69207;SDS011;56321;47.662;8.878;2023-04-06T02:35:51;9.43;;;4.38;;
69207;SDS011;56321;47.662;8.878;2023-04-06T02:38:16;10.67;;;4.43;;
69207;SDS011;56321;47.662;8.878;2023-04-06T02:40:42;11.40;;;4.40;;
69207;SDS011;56321;47.662;8.878;2023-04-06T02:43:07;10.33;;;4.53;;
69207;SDS011;56321;47.662;8.878;2023-04-06T02:45:32;12.73;;;4.27;;
69207;SDS011;56321;47.662;8.878;2023-04-06T02:47:58;10.57;;;4.30;;
69207;SDS011;56321;47.662;8.878;2023-04-06T02:50:23;10.40;;;4.30;;
69207;SDS011;56321;47.662;8.878;2023-04-06T02:52:48;11.95;;;4.60;;
69207;SDS011;56321;47.662;8.878;2023-04-06T02:55:14;10.27;;;4.50;;
69207;SDS011;56321;47.662;8.878;2023-04-06T02:57:39;10.63;;;4.70;;
69207;SDS011;56321;47.662;8.878;2023-04-06T03:00:05;10.57;;;4.43;;
69207;SDS011;56321;47.662;8.878;2023-04-06T03:02:31;11.70;;;4.60;;
69207;SDS011;56321;47.662;8.878;2023-04-06T03:04:56;10.37;;;4.33;;
69207;SDS011;56321;47.662;8.878;2023-04-06T03:07:22;10.15;;;4.57;;
69207;SDS011;56321;47.662;8.878;2023-04-06T03:09:47;12.07;;;5.07;;
69207;SDS011;56321;47.662;8.878;2023-04-06T03:12:13;10.17;;;4.27;;
69207;SDS011;56321;47.662;8.878;2023-04-06T03:14:38;10.57;;;4.87;;
69207;SDS011;56321;47.662;8.878;2023-04-06T03:17:03;9.50;;;4.43;;
69207;SDS011;56321;47.662;8.878;2023-04-06T03:19:29;10.20;;;4.80;;
69207;SDS011;56321;47.662;8.878;2023-04-06T03:21:54;11.30;;;5.03;;
69207;SDS011;56321;47.662;8.878;2023-04-06T03:24:20;11.50;;;4.97;;
69207;SDS011;56321;47.662;8.878;2023-04-06T03:26:45;10.20;;;4.67;;
69207;SDS011;56321;47.662;8.878;2023-04-06T03:29:10;10.47;;;4.70;;
69207;SDS011;56321;47.662;8.878;2023-04-06T03:31:36;10.60;;;5.30;;
69207;SDS011;56321;47.662;8.878;2023-04-06T03:34:01;10.20;;;4.75;;
69207;SDS011;56321;47.662;8.878;2023-04-06T03:36:26;11.00;;;4.93;;
69207;SDS011;56321;47.662;8.878;2023-04-06T03:38:52;10.30;;;4.53;;
69207;SDS011;56321;47.662;8.878;2023-04-06T03:41:20;10.93;;;4.97;;
69207;SDS011;56321;47.662;8.878;2023-04-06T03:43:46;11.00;;;4.80;;
69207;SDS011;56321;47.662;8.878;2023-04-06T03:46:11;10.53;;;4.90;;
69207;SDS011;56321;47.662;8.878;2023-04-06T03:48:37;10.93;;;4.80;;
69207;SDS011;56321;47.662;8.878;2023-04-06T03:51:02;10.25;;;5.07;;
69207;SDS011;56321;47.662;8.878;2023-04-06T03:53:28;11.27;;;4.97;;
69207;SDS011;56321;47.662;8.878;2023-04-06T03:55:53;11.03;;;5.00;;
69207;SDS011;56321;47.662;8.878;2023-04-06T03:58:18;10.60;;;4.90;;
69207;SDS011;56321;47.662;8.878;2023-04-06T04:00:44;9.93;;;4.50;;
69207;SDS011;56321;47.662;8.878;2023-04-06T04:03:09;10.27;;;4.67;;
69207;SDS011;56321;47.662;8.878;2023-04-06T04:05:35;10.70;;;4.77;;
69207;SDS011;56321;47.662;8.878;2023-04-06T04:08:00;9.90;;;4.78;;
69207;SDS011;56321;47.662;8.878;2023-04-06T04:10:26;10.63;;;4.83;;
69207;SDS011;56321;47.662;8.878;2023-04-06T04:12:51;11.03;;;4.70;;
69207;SDS011;56321;47.662;8.878;2023-04-06T04:15:16;11.00;;;4.93;;
69207;SDS011;56321;47.662;8.878;2023-04-06T04:17:42;11.20;;;4.67;;
69207;SDS011;56321;47.662;8.878;2023-04-06T04:20:11;11.02;;;5.22;;
69207;SDS011;56321;47.662;8.878;2023-04-06T04:22:37;13.77;;;5.00;;
69207;SDS011;56321;47.662;8.878;2023-04-06T04:25:02;12.05;;;5.13;;
69207;SDS011;56321;47.662;8.878;2023-04-06T04:27:27;12.53;;;5.20;;
69207;SDS011;56321;47.662;8.878;2023-04-06T04:29:53;12.10;;;5.30;;
69207;SDS011;56321;47.662;8.878;2023-04-06T04:32:18;11.63;;;5.10;;
69207;SDS011;56321;47.662;8.878;2023-04-06T04:34:44;11.73;;;5.30;;
69207;SDS011;56321;47.662;8.878;2023-04-06T04:37:09;11.27;;;5.20;;
69207;SDS011;56321;47.662;8.878;2023-04-06T04:39:34;12.02;;;5.40;;
69207;SDS011;56321;47.662;8.878;2023-04-06T04:42:00;11.67;;;5.30;;
69207;SDS011;56321;47.662;8.878;2023-04-06T04:44:25;12.13;;;5.20;;
69207;SDS011;56321;47.662;8.878;2023-04-06T04:46:51;10.87;;;5.10;;
69207;SDS011;56321;47.662;8.878;2023-04-06T04:49:16;11.75;;;4.85;;
69207;SDS011;56321;47.662;8.878;2023-04-06T04:51:42;10.77;;;4.73;;
69207;SDS011;56321;47.662;8.878;2023-04-06T04:54:07;11.07;;;5.33;;
69207;SDS011;56321;47.662;8.878;2023-04-06T04:56:32;12.23;;;5.40;;
69207;SDS011;56321;47.662;8.878;2023-04-06T04:58:58;11.07;;;4.90;;
69207;SDS011;56321;47.662;8.878;2023-04-06T05:01:23;11.68;;;5.38;;
69207;SDS011;56321;47.662;8.878;2023-04-06T05:03:49;12.37;;;5.30;;
69207;SDS011;56321;47.662;8.878;2023-04-06T05:06:14;11.93;;;5.30;;
69207;SDS011;56321;47.662;8.878;2023-04-06T05:08:40;11.43;;;4.97;;
69207;SDS011;56321;47.662;8.878;2023-04-06T05:11:06;12.00;;;5.60;;
69207;SDS011;56321;47.662;8.878;2023-04-06T05:13:31;10.93;;;5.00;;
69207;SDS011;56321;47.662;8.878;2023-04-06T05:15:57;11.60;;;4.90;;
69207;SDS011;56321;47.662;8.878;2023-04-06T05:18:22;13.27;;;5.33;;
69207;SDS011;56321;47.662;8.878;2023-04-06T05:20:48;11.37;;;5.00;;
69207;SDS011;56321;47.662;8.878;2023-04-06T05:23:13;11.55;;;5.20;;
69207;SDS011;56321;47.662;8.878;2023-04-06T05:25:38;13.30;;;5.20;;
69207;SDS011;56321;47.662;8.878;2023-04-06T05:28:04;12.40;;;5.60;;
69207;SDS011;56321;47.662;8.878;2023-04-06T05:30:29;11.47;;;5.70;;
69207;SDS011;56321;47.662;8.878;2023-04-06T05:32:55;12.73;;;5.87;;
69207;SDS011;56321;47.662;8.878;2023-04-06T05:35:20;13.95;;;6.30;;
69207;SDS011;56321;47.662;8.878;2023-04-06T05:37:45;14.67;;;6.97;;
69207;SDS011;56321;47.662;8.878;2023-04-06T05:40:11;13.20;;;6.47;;
69207;SDS011;56321;47.662;8.878;2023-04-06T05:42:40;14.30;;;6.90;;
69207;SDS011;56321;47.662;8.878;2023-04-06T05:45:07;13.95;;;6.82;;
69207;SDS011;56321;47.662;8.878;2023-04-06T05:47:35;14.45;;;5.97;;
69207;SDS011;56321;47.662;8.878;2023-04-06T05:50:01;14.53;;;6.07;;
69207;SDS011;56321;47.662;8.878;2023-04-06T05:52:26;12.83;;;6.17;;
69207;SDS011;56321;47.662;8.878;2023-04-06T05:54:51;13.57;;;6.40;;
69207;SDS011;56321;47.662;8.878;2023-04-06T05:57:17;11.47;;;6.20;;
69207;SDS011;56321;47.662;8.878;2023-04-06T05:59:43;12.77;;;6.00;;
69207;SDS011;56321;47.662;8.878;2023-04-06T06:02:08;14.03;;;6.43;;
69207;SDS011;56321;47.662;8.878;2023-04-06T06:04:33;12.37;;;5.87;;
69207;SDS011;56321;47.662;8.878;2023-04-06T06:06:59;14.70;;;7.10;;
69207;SDS011;56321;47.662;8.878;2023-04-06T06:09:25;12.20;;;6.13;;
69207;SDS011;56321;47.662;8.878;2023-04-06T06:11:51;13.65;;;6.20;;
69207;SDS011;56321;47.662;8.878;2023-04-06T06:14:16;14.30;;;6.47;;
69207;SDS011;56321;47.662;8.878;2023-04-06T06:16:42;12.47;;;6.23;;
69207;SDS011;56321;47.662;8.878;2023-04-06T06:19:07;13.70;;;6.83;;
69207;SDS011;56321;47.662;8.878;2023-04-06T06:21:32;12.57;;;6.13;;
69207;SDS011;56321;47.662;8.878;2023-04-06T06:23:58;19.33;;;13.57;;
69207;SDS011;56321;47.662;8.878;2023-04-06T06:26:23;16.27;;;7.70;;
69207;SDS011;56321;47.662;8.878;2023-04-06T06:28:48;14.00;;;6.90;;
69207;SDS011;56321;47.662;8.878;2023-04-06T06:31:14;13.07;;;6.90;;
69207;SDS011;56321;47.662;8.878;2023-04-06T06:33:39;14.43;;;7.03;;
69207;SDS011;56321;47.662;8.878;2023-04-06T06:36:05;14.60;;;7.00;;
69207;SDS011;56321;47.662;8.878;2023-04-06T06:38:30;13.63;;;6.67;;
69207;SDS011;56321;47.662;8.878;2023-04-06T06:40:56;13.80;;;6.77;;
69207;SDS011;56321;47.662;8.878;2023-04-06T06:43:21;15.10;;;6.83;;
69207;SDS011;56321;47.662;8.878;2023-04-06T06:45:46;13.95;;;7.25;;
69207;SDS011;56321;47.662;8.878;2023-04-06T06:48:12;13.27;;;7.10;;
69207;SDS011;56321;47.662;8.878;2023-04-06T06:50:37;15.47;;;7.30;;
69207;SDS011;56321;47.662;8.878;2023-04-06T06:53:03;14.80;;;7.13;;
69207;SDS011;56321;47.662;8.878;2023-04-06T06:55:28;14.60;;;7.25;;
69207;SDS011;56321;47.662;8.878;2023-04-06T06:57:53;15.03;;;7.30;;
69207;SDS011;56321;47.662;8.878;2023-04-06T07:00:19;14.20;;;7.87;;
69207;SDS011;56321;47.662;8.878;2023-04-06T07:02:48;16.15;;;7.40;;
69207;SDS011;56321;47.662;8.878;2023-04-06T07:05:13;14.52;;;6.80;;
69207;SDS011;56321;47.662;8.878;2023-04-06T07:07:40;14.23;;;6.93;;
69207;SDS011;56321;47.662;8.878;2023-04-06T07:10:07;13.27;;;6.30;;
69207;SDS011;56321;47.662;8.878;2023-04-06T07:12:33;13.90;;;7.23;;
69207;SDS011;56321;47.662;8.878;2023-04-06T07:14:59;13.32;;;7.80;;
69207;SDS011;56321;47.662;8.878;2023-04-06T07:17:24;14.13;;;6.97;;
69207;SDS011;56321;47.662;8.878;2023-04-06T07:19:49;13.37;;;7.20;;
69207;SDS011;56321;47.662;8.878;2023-04-06T07:22:15;12.43;;;6.23;;
69207;SDS011;56321;47.662;8.878;2023-04-06T07:24:40;14.13;;;7.77;;
69207;SDS011;56321;47.662;8.878;2023-04-06T07:27:06;13.83;;;7.27;;
69207;SDS011;56321;47.662;8.878;2023-04-06T07:29:32;14.40;;;7.03;;
69207;SDS011;56321;47.662;8.878;2023-04-06T07:31:57;12.73;;;6.53;;
69207;SDS011;56321;47.662;8.878;2023-04-06T07:34:23;13.23;;;6.17;;
69207;SDS011;56321;47.662;8.878;2023-04-06T07:36:48;14.47;;;6.97;;
69207;SDS011;56321;47.662;8.878;2023-04-06T07:39:14;15.48;;;7.10;;
69207;SDS011;56321;47.662;8.878;2023-04-06T07:41:39;12.60;;;6.60;;
69207;SDS011;56321;47.662;8.878;2023-04-06T07:44:05;13.17;;;7.37;;
69207;SDS011;56321;47.662;8.878;2023-04-06T07:46:30;12.85;;;6.70;;
69207;SDS011;56321;47.662;8.878;2023-04-06T07:48:56;11.77;;;6.10;;
69207;SDS011;56321;47.662;8.878;2023-04-06T07:51:22;11.95;;;6.00;;
69207;SDS011;56321;47.662;8.878;2023-04-06T07:53:47;12.00;;;6.30;;
69207;SDS011;56321;47.662;8.878;2023-04-06T07:56:13;11.97;;;6.23;;
69207;SDS011;56321;47.662;8.878;2023-04-06T07:58:40;12.75;;;6.22;;
69207;SDS011;56321;47.662;8.878;2023-04-06T08:01:05;12.17;;;6.30;;
69207;SDS011;56321;47.662;8.878;2023-04-06T08:03:32;11.67;;;6.40;;
69207;SDS011;56321;47.662;8.878;2023-04-06T08:05:58;12.00;;;6.47;;
69207;SDS011;56321;47.662;8.878;2023-04-06T08:08:24;12.47;;;6.90;;
69207;SDS011;56321;47.662;8.878;2023-04-06T08:10:49;11.90;;;5.83;;
69207;SDS011;56321;47.662;8.878;2023-04-06T08:13:14;11.40;;;6.18;;
69207;SDS011;56321;47.662;8.878;2023-04-06T08:15:41;11.50;;;6.20;;
69207;SDS011;56321;47.662;8.878;2023-04-06T08:18:07;11.95;;;6.03;;
69207;SDS011;56321;47.662;8.878;2023-04-06T08:20:33;11.90;;;6.10;;
69207;SDS011;56321;47.662;8.878;2023-04-06T08:22:59;11.88;;;6.38;;
69207;SDS011;56321;47.662;8.878;2023-04-06T08:25:25;11.77;;;6.30;;
69207;SDS011;56321;47.662;8.878;2023-04-06T08:27:50;12.55;;;6.32;;
69207;SDS011;56321;47.662;8.878;2023-04-06T08:30:16;10.93;;;5.97;;
69207;SDS011;56321;47.662;8.878;2023-04-06T08:32:43;11.32;;;6.00;;
69207;SDS011;56321;47.662;8.878;2023-04-06T08:35:09;11.45;;;5.90;;
69207;SDS011;56321;47.662;8.878;2023-04-06T08:37:34;11.40;;;5.63;;
69207;SDS011;56321;47.662;8.878;2023-04-06T08:40:00;11.27;;;6.10;;
69207;SDS011;56321;47.662;8.878;2023-04-06T08:42:25;11.17;;;5.80;;
69207;SDS011;56321;47.662;8.878;2023-04-06T08:44:53;10.68;;;5.45;;
69207;SDS011;56321;47.662;8.878;2023-04-06T08:47:20;11.10;;;5.82;;
69207;SDS011;56321;47.662;8.878;2023-04-06T08:49:46;11.13;;;6.00;;
69207;SDS011;56321;47.662;8.878;2023-04-06T08:52:12;11.80;;;6.07;;
69207;SDS011;56321;47.662;8.878;2023-04-06T08:54:38;10.63;;;5.77;;
69207;SDS011;56321;47.662;8.878;2023-04-06T08:57:04;10.85;;;5.65;;
69207;SDS011;56321;47.662;8.878;2023-04-06T08:59:31;10.93;;;5.70;;
69207;SDS011;56321;47.662;8.878;2023-04-06T09:01:56;10.68;;;5.50;;
69207;SDS011;56321;47.662;8.878;2023-04-06T09:04:23;11.87;;;6.13;;
69207;SDS011;56321;47.662;8.878;2023-04-06T09:06:48;10.68;;;5.80;;
69207;SDS011;56321;47.662;8.878;2023-04-06T09:09:15;12.10;;;5.80;;
69207;SDS011;56321;47.662;8.878;2023-04-06T09:11:47;10.90;;;5.85;;
69207;SDS011;56321;47.662;8.878;2023-04-06T09:14:14;10.32;;;6.00;;
69207;SDS011;56321;47.662;8.878;2023-04-06T09:16:41;12.00;;;5.80;;
69207;SDS011;56321;47.662;8.878;2023-04-06T09:19:07;10.68;;;5.65;;
69207;SDS011;56321;47.662;8.878;2023-04-06T09:21:33;10.27;;;5.47;;
69207;SDS011;56321;47.662;8.878;2023-04-06T09:24:00;10.63;;;5.75;;
69207;SDS011;56321;47.662;8.878;2023-04-06T09:26:26;10.55;;;5.70;;
69207;SDS011;56321;47.662;8.878;2023-04-06T09:28:56;11.00;;;5.80;;
69207;SDS011;56321;47.662;8.878;2023-04-06T09:31:26;10.25;;;5.30;;
69207;SDS011;56321;47.662;8.878;2023-04-06T09:33:54;9.75;;;5.03;;
69207;SDS011;56321;47.662;8.878;2023-04-06T09:36:28;9.57;;;5.15;;
69207;SDS011;56321;47.662;8.878;2023-04-06T09:38:59;10.27;;;5.57;;
69207;SDS011;56321;47.662;8.878;2023-04-06T09:41:29;11.53;;;5.10;;
69207;SDS011;56321;47.662;8.878;2023-04-06T09:44:03;10.95;;;5.30;;
69207;SDS011;56321;47.662;8.878;2023-04-06T09:46:42;10.13;;;4.80;;
69207;SDS011;56321;47.662;8.878;2023-04-06T09:49:09;9.82;;;4.80;;
69207;SDS011;56321;47.662;8.878;2023-04-06T09:51:39;11.60;;;4.57;;
69207;SDS011;56321;47.662;8.878;2023-04-06T09:54:07;10.17;;;5.33;;
69207;SDS011;56321;47.662;8.878;2023-04-06T09:59:20;10.10;;;5.22;;
69207;SDS011;56321;47.662;8.878;2023-04-06T10:01:50;8.93;;;4.90;;
69207;SDS011;56321;47.662;8.878;2023-04-06T10:04:26;8.88;;;5.00;;
69207;SDS011;56321;47.662;8.878;2023-04-06T10:07:01;10.07;;;4.70;;
69207;SDS011;56321;47.662;8.878;2023-04-06T10:09:28;9.80;;;5.03;;
69207;SDS011;56321;47.662;8.878;2023-04-06T10:12:02;9.63;;;5.28;;
69207;SDS011;56321;47.662;8.878;2023-04-06T10:14:28;8.82;;;4.63;;
69207;SDS011;56321;47.662;8.878;2023-04-06T10:16:55;8.82;;;4.22;;
69207;SDS011;56321;47.662;8.878;2023-04-06T10:19:24;9.47;;;4.53;;
69207;SDS011;56321;47.662;8.878;2023-04-06T10:21:54;8.95;;;5.13;;
69207;SDS011;56321;47.662;8.878;2023-04-06T10:24:23;9.18;;;5.05;;
69207;SDS011;56321;47.662;8.878;2023-04-06T10:26:58;8.63;;;4.87;;
69207;SDS011;56321;47.662;8.878;2023-04-06T10:29:26;8.48;;;4.78;;
69207;SDS011;56321;47.662;8.878;2023-04-06T10:31:52;8.80;;;5.10;;
69207;SDS011;56321;47.662;8.878;2023-04-06T10:34:17;8.87;;;5.10;;
69207;SDS011;56321;47.662;8.878;2023-04-06T10:36:42;10.27;;;5.80;;
69207;SDS011;56321;47.662;8.878;2023-04-06T10:39:08;9.73;;;5.07;;
69207;SDS011;56321;47.662;8.878;2023-04-06T10:41:40;8.80;;;5.57;;
69207;SDS011;56321;47.662;8.878;2023-04-06T10:44:07;9.23;;;5.30;;
69207;SDS011;56321;47.662;8.878;2023-04-06T10:46:33;9.03;;;5.43;;
69207;SDS011;56321;47.662;8.878;2023-04-06T10:49:09;9.13;;;5.72;;
69207;SDS011;56321;47.662;8.878;2023-04-06T10:51:39;9.05;;;5.35;;
69207;SDS011;56321;47.662;8.878;2023-04-06T10:54:07;7.82;;;5.25;;
69207;SDS011;56321;47.662;8.878;2023-04-06T10:56:36;8.65;;;5.45;;
69207;SDS011;56321;47.662;8.878;2023-04-06T10:59:03;8.50;;;5.57;;
69207;SDS011;56321;47.662;8.878;2023-04-06T11:01:30;8.57;;;5.40;;
69207;SDS011;56321;47.662;8.878;2023-04-06T11:03:56;9.10;;;5.17;;
69207;SDS011;56321;47.662;8.878;2023-04-06T11:06:25;8.45;;;5.10;;
69207;SDS011;56321;47.662;8.878;2023-04-06T11:08:54;9.07;;;5.63;;
69207;SDS011;56321;47.662;8.878;2023-04-06T11:11:20;9.32;;;5.65;;
69207;SDS011;56321;47.662;8.878;2023-04-06T11:13:58;8.18;;;5.30;;
69207;SDS011;56321;47.662;8.878;2023-04-06T11:16:29;8.20;;;5.17;;
69207;SDS011;56321;47.662;8.878;2023-04-06T11:19:00;9.55;;;5.70;;
69207;SDS011;56321;47.662;8.878;2023-04-06T11:21:36;8.35;;;5.50;;
69207;SDS011;56321;47.662;8.878;2023-04-06T11:24:37;9.32;;;5.78;;
69207;SDS011;56321;47.662;8.878;2023-04-06T11:26:56;9.90;;;6.00;;
69207;SDS011;56321;47.662;8.878;2023-04-06T11:29:27;9.13;;;5.90;;
69207;SDS011;56321;47.662;8.878;2023-04-06T11:34:30;9.30;;;5.40;;
69207;SDS011;56321;47.662;8.878;2023-04-06T11:36:58;8.88;;;5.07;;
69207;SDS011;56321;47.662;8.878;2023-04-06T11:39:25;9.23;;;5.45;;
69207;SDS011;56321;47.662;8.878;2023-04-06T11:41:57;9.53;;;5.60;;
69207;SDS011;56321;47.662;8.878;2023-04-06T11:44:37;9.30;;;5.30;;
69207;SDS011;56321;47.662;8.878;2023-04-06T11:47:10;8.80;;;5.80;;
69207;SDS011;56321;47.662;8.878;2023-04-06T11:49:37;9.50;;;5.80;;
69207;SDS011;56321;47.662;8.878;2023-04-06T11:52:13;8.63;;;5.30;;
69207;SDS011;56321;47.662;8.878;2023-04-06T11:54:43;8.88;;;5.32;;
69207;SDS011;56321;47.662;8.878;2023-04-06T11:57:10;9.02;;;5.20;;
69207;SDS011;56321;47.662;8.878;2023-04-06T11:59:35;8.60;;;5.00;;
69207;SDS011;56321;47.662;8.878;2023-04-06T12:02:01;7.83;;;4.67;;
69207;SDS011;56321;47.662;8.878;2023-04-06T12:04:28;8.43;;;4.27;;
69207;SDS011;56321;47.662;8.878;2023-04-06T12:06:54;10.38;;;4.95;;
69207;SDS011;56321;47.662;8.878;2023-04-06T12:09:20;15.88;;;5.10;;
69207;SDS011;56321;47.662;8.878;2023-04-06T12:11:46;9.20;;;4.70;;
69207;SDS011;56321;47.662;8.878;2023-04-06T12:14:11;8.00;;;4.47;;
69207;SDS011;56321;47.662;8.878;2023-04-06T12:16:37;8.02;;;4.30;;
69207;SDS011;56321;47.662;8.878;2023-04-06T12:19:03;8.83;;;4.47;;
69207;SDS011;56321;47.662;8.878;2023-04-06T12:21:29;8.80;;;4.50;;
69207;SDS011;56321;47.662;8.878;2023-04-06T12:23:58;7.83;;;4.00;;
69207;SDS011;56321;47.662;8.878;2023-04-06T12:26:24;9.68;;;4.72;;
69207;SDS011;56321;47.662;8.878;2023-04-06T12:28:50;9.40;;;4.25;;
69207;SDS011;56321;47.662;8.878;2023-04-06T12:31:16;9.53;;;4.90;;
69207;SDS011;56321;47.662;8.878;2023-04-06T12:33:42;9.93;;;5.55;;
69207;SDS011;56321;47.662;8.878;2023-04-06T12:36:17;8.57;;;4.87;;
69207;SDS011;56321;47.662;8.878;2023-04-06T12:38:45;9.18;;;4.80;;
69207;SDS011;56321;47.662;8.878;2023-04-06T12:41:12;8.10;;;4.20;;
69207;SDS011;56321;47.662;8.878;2023-04-06T12:43:38;8.80;;;4.57;;
69207;SDS011;56321;47.662;8.878;2023-04-06T12:46:07;9.10;;;4.70;;
69207;SDS011;56321;47.662;8.878;2023-04-06T12:48:33;29.33;;;6.38;;
69207;SDS011;56321;47.662;8.878;2023-04-06T12:51:00;11.00;;;4.80;;
69207;SDS011;56321;47.662;8.878;2023-04-06T12:53:27;9.43;;;5.00;;
69207;SDS011;56321;47.662;8.878;2023-04-06T12:55:53;9.75;;;4.30;;
69207;SDS011;56321;47.662;8.878;2023-04-06T12:58:19;8.63;;;4.25;;
69207;SDS011;56321;47.662;8.878;2023-04-06T13:00:46;8.47;;;4.40;;
69207;SDS011;56321;47.662;8.878;2023-04-06T13:03:12;9.85;;;4.88;;
69207;SDS011;56321;47.662;8.878;2023-04-06T13:05:43;9.13;;;4.73;;
69207;SDS011;56321;47.662;8.878;2023-04-06T13:08:09;9.75;;;4.63;;
69207;SDS011;56321;47.662;8.878;2023-04-06T13:10:35;11.23;;;4.93;;
69207;SDS011;56321;47.662;8.878;2023-04-06T13:13:00;9.30;;;4.60;;
69207;SDS011;56321;47.662;8.878;2023-04-06T13:15:25;11.07;;;4.80;;
69207;SDS011;56321;47.662;8.878;2023-04-06T13:17:51;9.83;;;4.90;;
69207;SDS011;56321;47.662;8.878;2023-04-06T13:20:16;9.33;;;4.73;;
69207;SDS011;56321;47.662;8.878;2023-04-06T13:22:41;9.33;;;4.70;;
69207;SDS011;56321;47.662;8.878;2023-04-06T13:25:07;10.47;;;4.60;;
69207;SDS011;56321;47.662;8.878;2023-04-06T13:27:32;8.98;;;4.55;;
69207;SDS011;56321;47.662;8.878;2023-04-06T13:30:00;8.68;;;4.43;;
69207;SDS011;56321;47.662;8.878;2023-04-06T13:32:26;8.80;;;4.53;;
69207;SDS011;56321;47.662;8.878;2023-04-06T13:34:54;8.17;;;4.00;;
69207;SDS011;56321;47.662;8.878;2023-04-06T13:37:19;9.60;;;4.32;;
69207;SDS011;56321;47.662;8.878;2023-04-06T13:39:45;8.13;;;3.93;;
69207;SDS011;56321;47.662;8.878;2023-04-06T13:42:10;8.43;;;4.03;;
69207;SDS011;56321;47.662;8.878;2023-04-06T13:44:35;8.33;;;3.63;;
69207;SDS011;56321;47.662;8.878;2023-04-06T13:47:01;7.95;;;3.67;;
69207;SDS011;56321;47.662;8.878;2023-04-06T13:49:26;7.73;;;3.77;;
69207;SDS011;56321;47.662;8.878;2023-04-06T13:51:52;10.43;;;4.00;;
69207;SDS011;56321;47.662;8.878;2023-04-06T13:54:17;10.33;;;4.17;;
69207;SDS011;56321;47.662;8.878;2023-04-06T13:56:42;8.23;;;3.60;;
69207;SDS011;56321;47.662;8.878;2023-04-06T13:59:08;7.65;;;3.10;;
69207;SDS011;56321;47.662;8.878;2023-04-06T14:01:33;7.70;;;3.30;;
69207;SDS011;56321;47.662;8.878;2023-04-06T14:03:58;7.30;;;3.17;;
69207;SDS011;56321;47.662;8.878;2023-04-06T14:06:23;7.73;;;3.43;;
69207;SDS011;56321;47.662;8.878;2023-04-06T14:08:49;7.05;;;2.83;;
69207;SDS011;56321;47.662;8.878;2023-04-06T14:11:15;6.97;;;3.03;;
69207;SDS011;56321;47.662;8.878;2023-04-06T14:13:41;7.65;;;2.92;;
69207;SDS011;56321;47.662;8.878;2023-04-06T14:16:07;8.07;;;3.70;;
69207;SDS011;56321;47.662;8.878;2023-04-06T14:18:32;9.07;;;3.90;;
69207;SDS011;56321;47.662;8.878;2023-04-06T14:20:59;9.00;;;3.80;;
69207;SDS011;56321;47.662;8.878;2023-04-06T14:23:25;7.65;;;3.30;;
69207;SDS011;56321;47.662;8.878;2023-04-06T14:26:00;7.82;;;3.78;;
69207;SDS011;56321;47.662;8.878;2023-04-06T14:28:29;8.32;;;3.45;;
69207;SDS011;56321;47.662;8.878;2023-04-06T14:30:56;8.02;;;3.38;;
69207;SDS011;56321;47.662;8.878;2023-04-06T14:33:21;8.17;;;3.27;;
69207;SDS011;56321;47.662;8.878;2023-04-06T14:35:47;7.50;;;3.10;;
69207;SDS011;56321;47.662;8.878;2023-04-06T14:38:12;7.97;;;3.40;;
69207;SDS011;56321;47.662;8.878;2023-04-06T14:40:37;9.73;;;3.40;;